National Weather Service Raw Text Product

Displaying AFOS PIL: TAFALO Received: 2017-08-13 17:20 UTC


486 
FTUS43 KDMX 131720
TAFALO
TAF
KALO 131720Z 1318/1418 17010KT P6SM VCSH SCT050 OVC100
     FM132300 14007KT P6SM SCT070
     FM140600 15006KT P6SM VCTS BKN060CB
     FM141200 15005KT P6SM BKN080=